createdAt,value
2023-06-29T00:00:58.511Z,67.96
2023-06-29T00:04:00.300Z,68.44
2023-06-29T00:07:04.202Z,68.49
2023-06-29T00:10:07.385Z,67.28
2023-06-29T00:13:08.798Z,67.27
2023-06-29T00:16:10.300Z,67.74
2023-06-29T00:19:15.711Z,68.07
2023-06-29T00:22:20.074Z,69.34
2023-06-29T00:25:21.587Z,70.34
2023-06-29T00:28:23.227Z,70.90
2023-06-29T00:31:25.630Z,71.41
2023-06-29T00:34:27.229Z,70.55
2023-06-29T00:37:28.708Z,70.72
2023-06-29T00:40:30.300Z,71.13
2023-06-29T00:43:31.885Z,71.25
2023-06-29T00:46:33.476Z,71.14
2023-06-29T00:49:35.258Z,71.75
2023-06-29T00:52:37.088Z,72.43
2023-06-29T00:55:39.161Z,72.41
2023-06-29T00:58:40.664Z,72.56
2023-06-29T01:01:44.231Z,72.04
2023-06-29T01:04:46.877Z,72.46
2023-06-29T01:08:06.868Z,73.14
2023-06-29T01:11:09.021Z,74.64
2023-06-29T01:14:12.622Z,76.33
2023-06-29T01:17:21.225Z,77.66
2023-06-29T01:20:27.511Z,79.33
2023-06-29T01:23:37.726Z,79.92
2023-06-29T01:26:39.641Z,80.77
2023-06-29T01:29:42.128Z,81.25
2023-06-29T01:32:43.606Z,81.10
2023-06-29T01:35:45.863Z,80.43
2023-06-29T01:39:00.053Z,80.16
2023-06-29T01:42:02.207Z,79.60
2023-06-29T01:45:05.816Z,78.90
2023-06-29T01:48:07.696Z,78.97
2023-06-29T01:51:10.079Z,79.04
2023-06-29T01:54:11.540Z,77.89
2023-06-29T01:57:13.948Z,78.04
2023-06-29T02:00:15.672Z,77.94
2023-06-29T02:03:17.331Z,78.13
2023-06-29T02:06:18.869Z,78.30
2023-06-29T02:09:20.305Z,78.73
2023-06-29T02:12:21.780Z,79.16
2023-06-29T02:15:23.235Z,80.65
2023-06-29T02:18:24.742Z,80.97
2023-06-29T02:21:26.424Z,82.35
2023-06-29T02:24:27.887Z,82.87
2023-06-29T02:27:29.363Z,82.29
2023-06-29T02:30:30.800Z,82.29
2023-06-29T02:33:32.276Z,82.40
2023-06-29T02:36:33.703Z,82.83
2023-06-29T02:39:35.134Z,84.10
2023-06-29T02:42:37.815Z,85.71
2023-06-29T02:45:39.319Z,85.02
2023-06-29T02:48:40.825Z,84.70
2023-06-29T02:51:42.359Z,84.11
2023-06-29T02:54:43.797Z,84.59
2023-06-29T02:57:45.264Z,84.29
2023-06-29T03:00:46.715Z,83.33
2023-06-29T03:03:48.162Z,83.47
2023-06-29T03:06:49.651Z,83.41
2023-06-29T03:09:51.115Z,82.28
2023-06-29T03:12:52.599Z,81.68
2023-06-29T03:15:57.789Z,81.87
2023-06-29T03:18:59.224Z,81.99
2023-06-29T03:22:00.695Z,83.11
2023-06-29T03:25:02.822Z,84.32
2023-06-29T03:28:04.540Z,87.01
2023-06-29T03:31:06.201Z,89.60
2023-06-29T03:34:07.760Z,90.02
2023-06-29T03:37:09.357Z,90.26
2023-06-29T03:40:11.481Z,90.16
2023-06-29T03:43:12.978Z,89.85
2023-06-29T03:46:14.563Z,89.54
2023-06-29T03:49:16.054Z,89.84
2023-06-29T03:52:17.482Z,90.15
2023-06-29T03:55:19.506Z,91.41
2023-06-29T03:58:21.232Z,91.08
2023-06-29T04:01:22.849Z,89.12
2023-06-29T04:04:24.291Z,88.55
2023-06-29T04:07:25.782Z,89.64
2023-06-29T04:10:27.269Z,89.26
2023-06-29T04:13:28.698Z,89.86
2023-06-29T04:16:30.175Z,89.84
2023-06-29T04:19:31.701Z,89.53
2023-06-29T04:22:33.145Z,92.24
2023-06-29T04:25:34.595Z,91.67
2023-06-29T04:28:36.983Z,92.16
2023-06-29T04:31:38.624Z,92.58
2023-06-29T04:34:40.060Z,93.94
2023-06-29T04:37:44.320Z,93.08
2023-06-29T04:40:45.812Z,94.26
2023-06-29T04:43:48.871Z,93.58
2023-06-29T04:46:50.421Z,91.63
2023-06-29T04:49:52.565Z,89.52
2023-06-29T04:52:59.604Z,88.29
2023-06-29T04:56:04.988Z,88.80
2023-06-29T04:59:06.423Z,87.61
2023-06-29T05:02:07.983Z,87.14
2023-06-29T05:05:09.775Z,85.65
2023-06-29T05:08:11.340Z,84.52
2023-06-29T05:11:12.775Z,83.72
2023-06-29T05:14:14.425Z,83.65
2023-06-29T05:17:16.271Z,85.16
2023-06-29T05:20:18.706Z,87.10
2023-06-29T05:23:20.461Z,88.49
2023-06-29T05:26:23.025Z,89.24
2023-06-29T05:29:25.218Z,90.17
2023-06-29T05:32:27.757Z,90.39
2023-06-29T05:35:29.214Z,90.29
2023-06-29T05:38:30.878Z,89.90
2023-06-29T05:41:32.511Z,89.69
2023-06-29T05:44:33.927Z,88.66
2023-06-29T05:47:35.385Z,89.68
2023-06-29T05:50:36.949Z,89.27
2023-06-29T05:53:38.405Z,87.69
2023-06-29T05:56:39.876Z,87.54
2023-06-29T05:59:41.352Z,86.97
2023-06-29T06:02:42.849Z,87.68
2023-06-29T06:05:44.341Z,89.73
2023-06-29T06:08:45.767Z,83.58
2023-06-29T06:11:48.361Z,81.67
2023-06-29T06:14:49.954Z,83.14
2023-06-29T06:17:51.729Z,79.02
2023-06-29T06:20:53.220Z,76.80
2023-06-29T06:23:54.804Z,77.55
2023-06-29T06:26:56.294Z,76.78
2023-06-29T06:29:57.777Z,72.47
2023-06-29T06:33:02.300Z,74.33
2023-06-29T06:36:05.116Z,74.16
2023-06-29T06:39:06.740Z,74.68
2023-06-29T06:42:08.393Z,73.63
2023-06-29T06:45:10.228Z,76.29
2023-06-29T06:48:12.329Z,73.89
2023-06-29T06:51:13.855Z,71.98
2023-06-29T06:54:15.260Z,72.53
2023-06-29T06:57:16.721Z,67.89
2023-06-29T07:00:18.713Z,68.74
2023-06-29T07:03:20.394Z,66.99
2023-06-29T07:06:24.275Z,65.85
2023-06-29T07:09:25.710Z,66.48
2023-06-29T07:12:27.200Z,65.32
2023-06-29T07:15:28.632Z,61.04
2023-06-29T07:18:31.136Z,60.53
2023-06-29T07:21:35.217Z,64.55
2023-06-29T07:24:36.824Z,61.79
2023-06-29T07:27:40.257Z,61.76
2023-06-29T07:30:41.745Z,57.91
2023-06-29T07:33:43.298Z,57.81
2023-06-29T07:36:44.736Z,58.09
2023-06-29T07:39:46.179Z,59.47
2023-06-29T07:42:47.706Z,58.32
2023-06-29T07:45:49.235Z,57.73
2023-06-29T07:48:53.380Z,59.16
2023-06-29T07:51:54.956Z,56.86
2023-06-29T07:54:56.373Z,56.90
2023-06-29T08:01:02.521Z,53.68
2023-06-29T08:04:05.025Z,57.22
2023-06-29T08:07:10.117Z,54.78
2023-06-29T08:10:12.389Z,53.88
2023-06-29T08:13:13.900Z,54.51
2023-06-29T08:16:15.788Z,52.94
2023-06-29T08:19:17.406Z,53.76
2023-06-29T08:22:18.914Z,54.32
2023-06-29T08:25:22.267Z,51.78
2023-06-29T08:28:23.804Z,50.67
2023-06-29T08:31:25.460Z,50.53
2023-06-29T08:34:26.917Z,48.92
2023-06-29T08:37:29.462Z,50.63
2023-06-29T08:40:32.498Z,47.90
2023-06-29T08:43:34.224Z,50.94
2023-06-29T08:46:38.783Z,50.06
2023-06-29T08:49:43.097Z,48.21
2023-06-29T08:52:45.569Z,48.25
2023-06-29T08:55:48.549Z,46.01
2023-06-29T08:58:50.919Z,47.67
2023-06-29T09:01:52.854Z,45.57
2023-06-29T09:04:54.658Z,46.22
2023-06-29T09:07:56.549Z,46.03
2023-06-29T09:10:58.013Z,45.34
2023-06-29T09:13:59.487Z,46.64
2023-06-29T09:17:02.995Z,46.86
2023-06-29T09:20:16.493Z,44.93
2023-06-29T09:23:18.085Z,44.20
2023-06-29T09:26:19.690Z,44.40
2023-06-29T09:29:21.834Z,43.91
2023-06-29T09:32:23.420Z,44.62
2023-06-29T09:35:24.872Z,44.64
2023-06-29T09:38:31.092Z,44.28
2023-06-29T09:41:32.715Z,44.28
2023-06-29T09:44:34.200Z,43.45
2023-06-29T09:50:43.168Z,45.67
2023-06-29T09:53:45.258Z,43.60
2023-06-29T09:56:48.675Z,42.63
2023-06-29T09:59:50.803Z,42.23
2023-06-29T10:02:52.640Z,41.61
2023-06-29T10:06:00.849Z,42.38
2023-06-29T10:09:03.008Z,42.99
2023-06-29T10:12:09.234Z,42.18
2023-06-29T10:15:15.125Z,42.10
2023-06-29T10:18:23.924Z,43.29
2023-06-29T10:21:25.843Z,42.28
2023-06-29T10:24:33.705Z,43.24
2023-06-29T10:27:36.633Z,42.70
2023-06-29T10:30:50.293Z,42.08
2023-06-29T10:33:52.880Z,40.08
2023-06-29T10:37:00.812Z,40.37
2023-06-29T10:40:06.358Z,40.33
2023-06-29T10:43:08.502Z,40.87
2023-06-29T10:46:10.030Z,40.06
2023-06-29T10:49:22.364Z,40.47
2023-06-29T10:52:25.401Z,39.98
2023-06-29T10:55:38.079Z,39.81
2023-06-29T10:58:40.144Z,38.75
2023-06-29T11:01:41.865Z,40.17
2023-06-29T11:04:43.778Z,39.92
2023-06-29T11:07:48.348Z,37.54
2023-06-29T11:10:50.827Z,39.04
2023-06-29T11:13:52.319Z,37.67
2023-06-29T11:16:55.157Z,37.86
2023-06-29T11:19:56.650Z,36.65
2023-06-29T11:22:58.792Z,37.06
2023-06-29T11:26:01.586Z,37.68
2023-06-29T11:29:07.156Z,37.73
2023-06-29T11:32:13.658Z,36.09
2023-06-29T11:35:15.220Z,37.66
2023-06-29T11:38:16.804Z,37.80
2023-06-29T11:41:18.335Z,35.76
2023-06-29T11:44:23.517Z,35.15
2023-06-29T11:47:33.187Z,35.28
2023-06-29T11:50:38.209Z,35.80
2023-06-29T11:53:40.178Z,36.54
2023-06-29T11:56:43.531Z,36.41
2023-06-29T11:59:46.515Z,36.35
2023-06-29T12:02:48.065Z,37.52
2023-06-29T12:05:51.175Z,36.44
2023-06-29T12:08:53.492Z,34.93
2023-06-29T12:12:03.402Z,34.80
2023-06-29T12:15:21.886Z,35.02
2023-06-29T12:18:29.262Z,34.72
2023-06-29T12:21:34.871Z,34.88
2023-06-29T12:24:36.446Z,34.93
2023-06-29T12:27:38.610Z,33.87
2023-06-29T12:30:41.242Z,32.61
2023-06-29T12:33:42.688Z,33.51
2023-06-29T12:36:44.196Z,34.57
2023-06-29T12:39:45.697Z,34.35
2023-06-29T12:42:47.298Z,35.60
2023-06-29T12:45:48.748Z,35.78
2023-06-29T12:48:50.289Z,34.98
2023-06-29T12:51:51.749Z,33.86
2023-06-29T12:54:53.500Z,34.51
2023-06-29T12:57:54.936Z,32.91
2023-06-29T13:00:56.539Z,32.77
2023-06-29T13:03:58.237Z,32.98
2023-06-29T13:06:59.879Z,33.41
2023-06-29T13:10:01.545Z,35.04
2023-06-29T13:13:03.499Z,35.57
2023-06-29T13:16:05.206Z,33.88
2023-06-29T13:32:20.358Z,31.94
2023-06-29T13:35:23.095Z,32.38
2023-06-29T13:38:24.646Z,32.04
2023-06-29T13:41:40.042Z,31.28
2023-06-29T13:44:41.540Z,31.56
2023-06-29T13:47:43.444Z,32.55
2023-06-29T13:50:44.965Z,33.51
2023-06-29T13:53:46.377Z,32.69
2023-06-29T13:56:48.034Z,33.45
2023-06-29T13:59:49.548Z,32.95
2023-06-29T14:02:52.626Z,32.62
2023-06-29T14:05:55.092Z,33.11
2023-06-29T14:08:56.530Z,33.12
2023-06-29T14:11:59.753Z,33.04
2023-06-29T14:15:01.197Z,31.96
2023-06-29T14:18:03.442Z,33.36
2023-06-29T14:21:04.992Z,33.82
2023-06-29T14:24:06.511Z,33.18
2023-06-29T14:27:08.011Z,32.42
2023-06-29T14:30:11.927Z,32.45
2023-06-29T14:33:27.485Z,33.84
2023-06-29T14:36:30.027Z,33.50
2023-06-29T14:39:31.807Z,32.86
2023-06-29T14:42:33.891Z,33.31
2023-06-29T14:45:35.328Z,32.30
2023-06-29T14:48:36.786Z,33.03
2023-06-29T14:51:38.420Z,32.35
2023-06-29T14:54:39.886Z,32.43
2023-06-29T14:57:41.327Z,33.50
2023-06-29T15:03:45.099Z,33.22
2023-06-29T15:06:52.154Z,33.94
2023-06-29T15:09:53.852Z,35.05
2023-06-29T15:12:55.434Z,35.00
2023-06-29T15:15:59.284Z,35.73
2023-06-29T15:19:01.073Z,36.33
2023-06-29T15:22:02.732Z,34.80
2023-06-29T15:25:04.966Z,34.33
2023-06-29T15:28:06.728Z,34.26
2023-06-29T15:31:08.263Z,35.06
2023-06-29T15:34:09.853Z,34.45
2023-06-29T15:37:11.566Z,34.46
2023-06-29T15:40:13.702Z,34.03
2023-06-29T15:43:15.632Z,36.21
2023-06-29T15:46:17.339Z,37.26
2023-06-29T15:49:18.916Z,37.85
2023-06-29T15:52:22.897Z,38.75
2023-06-29T15:59:47.738Z,38.36
2023-06-29T16:02:49.305Z,38.04
2023-06-29T16:05:50.890Z,38.68
2023-06-29T16:08:52.554Z,39.45
2023-06-29T16:11:54.926Z,38.75
2023-06-29T16:15:00.080Z,39.73
2023-06-29T16:18:01.565Z,39.83
2023-06-29T16:21:03.052Z,39.67
2023-06-29T16:24:04.872Z,39.91
2023-06-29T16:27:06.374Z,40.43
2023-06-29T16:30:08.372Z,42.81
2023-06-29T16:33:10.017Z,43.05
2023-06-29T16:36:11.681Z,42.59
2023-06-29T16:39:13.584Z,43.64
2023-06-29T16:42:15.749Z,43.64
2023-06-29T16:45:17.451Z,43.18
2023-06-29T16:48:19.024Z,42.60
2023-06-29T16:51:20.647Z,43.75
2023-06-29T16:54:22.657Z,44.04
2023-06-29T16:57:24.149Z,44.39
2023-06-29T17:00:25.607Z,43.82
2023-06-29T17:03:28.214Z,44.21
2023-06-29T17:06:30.141Z,45.68
2023-06-29T17:09:31.589Z,45.99
2023-06-29T17:12:33.331Z,45.36
2023-06-29T17:15:34.871Z,45.75
2023-06-29T17:18:36.414Z,46.76
2023-06-29T17:21:38.900Z,46.83
2023-06-29T17:24:41.225Z,47.52
2023-06-29T17:27:42.736Z,47.49
2023-06-29T17:30:44.709Z,47.85
2023-06-29T17:33:54.894Z,48.01
2023-06-29T17:36:57.580Z,48.13
2023-06-29T17:39:59.002Z,48.53
2023-06-29T17:43:00.464Z,48.58
2023-06-29T17:46:02.023Z,48.88
2023-06-29T17:49:03.503Z,48.54
2023-06-29T17:52:05.325Z,48.71
2023-06-29T17:55:07.308Z,48.12
2023-06-29T17:58:08.751Z,48.11
2023-06-29T18:01:10.195Z,48.09
2023-06-29T18:04:11.875Z,48.05
2023-06-29T18:07:13.519Z,48.56
2023-06-29T18:10:16.109Z,48.86
2023-06-29T18:13:17.520Z,48.16
2023-06-29T18:16:19.098Z,48.55
2023-06-29T18:19:21.097Z,48.52
2023-06-29T18:22:22.613Z,48.77
2023-06-29T18:25:24.036Z,48.78
2023-06-29T18:28:25.575Z,49.18
2023-06-29T18:31:27.051Z,48.84
2023-06-29T18:34:28.483Z,50.32
2023-06-29T18:37:29.949Z,49.71
2023-06-29T18:40:33.397Z,50.71
2023-06-29T18:43:34.828Z,51.32
2023-06-29T18:47:00.897Z,50.69
2023-06-29T18:50:04.753Z,50.34
2023-06-29T18:53:06.203Z,50.07
2023-06-29T18:56:07.636Z,51.17
2023-06-29T18:59:13.155Z,51.16
2023-06-29T19:02:15.049Z,50.95
2023-06-29T19:05:19.475Z,50.83
2023-06-29T19:08:22.268Z,51.37
2023-06-29T19:11:24.402Z,51.72
2023-06-29T19:14:26.056Z,52.18
2023-06-29T19:17:29.035Z,52.81
2023-06-29T19:20:30.693Z,54.35
2023-06-29T19:23:32.143Z,53.77
2023-06-29T19:26:33.599Z,53.29
2023-06-29T19:29:35.088Z,54.12
2023-06-29T19:32:37.916Z,53.77
2023-06-29T19:35:39.439Z,54.27
2023-06-29T19:38:40.866Z,54.06
2023-06-29T19:41:42.249Z,54.52
2023-06-29T19:44:43.656Z,54.99
2023-06-29T19:47:45.141Z,54.66
2023-06-29T19:50:46.667Z,54.93
2023-06-29T19:53:48.095Z,54.91
2023-06-29T19:56:49.752Z,56.40
2023-06-29T19:59:51.230Z,56.14
2023-06-29T20:02:53.440Z,56.51
2023-06-29T20:05:54.968Z,57.26
2023-06-29T20:08:56.408Z,56.56
2023-06-29T20:11:57.917Z,57.14
2023-06-29T20:14:59.358Z,57.14
2023-06-29T20:18:00.826Z,57.60
2023-06-29T20:21:02.399Z,58.21
2023-06-29T20:24:04.166Z,58.27
2023-06-29T20:27:08.700Z,58.25
2023-06-29T20:30:10.160Z,58.25
2023-06-29T20:33:11.641Z,59.25
2023-06-29T20:36:14.078Z,59.54
2023-06-29T20:39:15.636Z,59.23
2023-06-29T20:42:17.049Z,60.81
2023-06-29T20:45:18.593Z,60.63
2023-06-29T20:48:20.028Z,62.34
2023-06-29T20:51:21.440Z,63.95
2023-06-29T20:54:22.872Z,64.10
2023-06-29T20:57:24.464Z,62.60
2023-06-29T21:00:26.691Z,62.09
2023-06-29T21:03:29.876Z,62.76
2023-06-29T21:06:31.403Z,62.64
2023-06-29T21:09:33.521Z,63.37
2023-06-29T21:12:35.638Z,63.78
2023-06-29T21:15:37.111Z,65.01
2023-06-29T21:18:38.847Z,65.73
2023-06-29T21:21:41.225Z,66.91
2023-06-29T21:24:42.884Z,67.04
2023-06-29T21:27:44.615Z,66.08
2023-06-29T21:30:46.347Z,65.96
2023-06-29T21:33:48.181Z,66.36
2023-06-29T21:36:49.839Z,67.65
2023-06-29T21:39:51.311Z,67.83
2023-06-29T21:42:52.844Z,68.24
2023-06-29T21:45:54.329Z,68.81
2023-06-29T21:48:55.806Z,68.93
2023-06-29T21:51:57.317Z,68.72
2023-06-29T21:54:58.764Z,69.69
2023-06-29T21:58:00.206Z,69.63
2023-06-29T22:01:02.790Z,69.29
2023-06-29T22:04:04.443Z,69.35
2023-06-29T22:07:15.526Z,69.68
2023-06-29T22:10:18.347Z,69.86
2023-06-29T22:13:24.117Z,70.44
2023-06-29T22:16:26.029Z,70.56
2023-06-29T22:19:27.887Z,70.42
2023-06-29T22:22:29.315Z,70.63
2023-06-29T22:25:30.775Z,71.15
2023-06-29T22:28:32.225Z,72.29
2023-06-29T22:31:33.709Z,71.52
2023-06-29T22:34:35.153Z,71.69
2023-06-29T22:37:36.729Z,71.70
2023-06-29T22:40:38.247Z,71.63
2023-06-29T22:43:40.521Z,71.41
2023-06-29T22:46:42.043Z,70.59
2023-06-29T22:49:43.539Z,71.09
2023-06-29T22:52:45.063Z,71.56
2023-06-29T22:55:46.671Z,71.02
2023-06-29T22:59:05.444Z,71.77
2023-06-29T23:02:06.911Z,72.51
2023-06-29T23:05:09.322Z,72.33
2023-06-29T23:08:12.345Z,72.48
2023-06-29T23:11:13.847Z,72.85
2023-06-29T23:14:16.533Z,73.44
2023-06-29T23:17:23.369Z,73.33
2023-06-29T23:20:25.760Z,74.28
2023-06-29T23:23:27.198Z,73.61
2023-06-29T23:26:28.605Z,74.07
2023-06-29T23:29:30.066Z,73.16
2023-06-29T23:32:31.525Z,73.54
2023-06-29T23:35:33.011Z,73.75
2023-06-29T23:38:34.709Z,73.72
2023-06-29T23:41:36.131Z,74.70
2023-06-29T23:44:41.721Z,75.92
2023-06-29T23:47:44.303Z,75.71
2023-06-29T23:50:45.797Z,78.07
2023-06-29T23:53:47.225Z,77.45
2023-06-29T23:56:52.659Z,76.95
2023-06-29T23:59:54.200Z,77.21
